createdAt,value
2023-04-04T00:01:44.313Z,2.90
2023-04-04T00:06:47.791Z,2.80
2023-04-04T00:11:49.858Z,4.10
2023-04-04T00:16:51.615Z,3.00
2023-04-04T00:21:53.147Z,2.80
2023-04-04T00:26:55.471Z,2.60
2023-04-04T00:31:58.122Z,3.30
2023-04-04T00:36:59.895Z,3.00
2023-04-04T00:42:02.049Z,3.90
2023-04-04T00:47:04.667Z,2.70
2023-04-04T00:52:07.820Z,2.20
2023-04-04T00:57:09.674Z,3.20
2023-04-04T01:02:11.515Z,2.30
2023-04-04T01:07:13.692Z,1.90
2023-04-04T01:12:15.631Z,3.10
2023-04-04T01:17:17.342Z,3.40
2023-04-04T01:22:20.411Z,3.20
2023-04-04T01:27:22.647Z,3.00
2023-04-04T01:32:46.277Z,2.40
2023-04-04T01:38:06.519Z,2.50
2023-04-04T01:43:08.726Z,2.70
2023-04-04T01:48:11.181Z,2.60
2023-04-04T01:53:13.023Z,2.60
2023-04-04T01:58:14.542Z,2.40
2023-04-04T02:03:16.058Z,2.10
2023-04-04T02:08:17.993Z,2.50
2023-04-04T02:13:20.048Z,4.40
2023-04-04T02:18:21.547Z,2.00
2023-04-04T02:23:23.029Z,4.90
2023-04-04T02:28:24.564Z,4.70
2023-04-04T02:33:26.014Z,3.00
2023-04-04T02:38:28.729Z,2.90
2023-04-04T02:43:30.398Z,2.60
2023-04-04T02:48:32.120Z,2.50
2023-04-04T02:53:33.632Z,2.40
2023-04-04T02:58:35.173Z,2.50
2023-04-04T03:03:37.322Z,2.10
2023-04-04T03:08:39.167Z,2.20
2023-04-04T03:13:40.784Z,4.30
2023-04-04T03:18:42.467Z,4.40
2023-04-04T03:23:44.018Z,4.90
2023-04-04T03:28:45.542Z,2.70
2023-04-04T03:33:47.373Z,2.90
2023-04-04T03:38:49.106Z,3.00
2023-04-04T03:43:50.946Z,2.50
2023-04-04T03:48:52.432Z,3.40
2023-04-04T03:53:54.114Z,3.00
2023-04-04T03:58:56.531Z,2.70
2023-04-04T04:03:58.223Z,5.40
2023-04-04T04:08:59.904Z,4.90
2023-04-04T04:14:01.453Z,5.00
2023-04-04T04:19:03.542Z,3.80
2023-04-04T04:24:06.013Z,2.10
2023-04-04T04:29:08.089Z,3.10
2023-04-04T04:34:09.716Z,2.90
2023-04-04T04:39:11.229Z,3.10
2023-04-04T04:44:13.442Z,2.10
2023-04-04T04:49:15.584Z,1.80
2023-04-04T04:54:17.185Z,5.70
2023-04-04T04:59:18.683Z,3.60
2023-04-04T05:04:20.334Z,3.80
2023-04-04T05:09:21.841Z,3.70
2023-04-04T05:14:23.669Z,2.30
2023-04-04T05:19:25.222Z,3.80
2023-04-04T05:24:27.624Z,2.10
2023-04-04T05:29:29.181Z,3.10
2023-04-04T05:34:31.569Z,3.20
2023-04-04T05:39:33.095Z,2.90
2023-04-04T05:44:34.879Z,3.80
2023-04-04T05:49:36.416Z,6.40
2023-04-04T05:54:37.928Z,3.00
2023-04-04T05:59:39.518Z,3.10
2023-04-04T06:04:41.152Z,2.80
2023-04-04T06:09:43.834Z,3.10
2023-04-04T06:14:45.472Z,2.50
2023-04-04T06:19:46.989Z,4.60
2023-04-04T06:24:48.481Z,2.50
2023-04-04T06:29:50.253Z,3.20
2023-04-04T06:34:51.744Z,3.50
2023-04-04T06:39:53.798Z,4.20
2023-04-04T06:44:55.537Z,3.20
2023-04-04T06:49:57.340Z,3.10
2023-04-04T06:54:58.882Z,3.40
2023-04-04T07:00:00.838Z,5.40
2023-04-04T07:05:04.406Z,2.60
2023-04-04T07:10:07.042Z,3.50
2023-04-04T07:15:09.242Z,3.80
2023-04-04T07:20:11.455Z,4.30
2023-04-04T07:25:13.571Z,3.20
2023-04-04T07:30:21.978Z,2.40
2023-04-04T07:35:24.097Z,2.80
2023-04-04T07:40:25.679Z,2.70
2023-04-04T07:45:27.215Z,4.70
2023-04-04T07:50:28.693Z,2.80
2023-04-04T07:55:30.524Z,3.10
2023-04-04T08:00:32.035Z,4.50
2023-04-04T08:05:33.630Z,4.80
2023-04-04T08:10:35.147Z,6.70
2023-04-04T08:15:36.736Z,3.40
2023-04-04T08:20:38.622Z,3.10
2023-04-04T08:25:40.683Z,3.40
2023-04-04T08:30:43.516Z,2.80
2023-04-04T08:35:45.057Z,3.50
2023-04-04T08:40:50.143Z,3.20
2023-04-04T08:45:54.106Z,3.00
2023-04-04T08:50:59.666Z,3.10
2023-04-04T08:56:01.179Z,3.10
2023-04-04T09:01:02.963Z,3.50
2023-04-04T09:06:05.454Z,4.20
2023-04-04T09:11:07.832Z,4.30
2023-04-04T09:16:09.390Z,3.00
2023-04-04T09:21:12.316Z,3.00
2023-04-04T09:26:13.883Z,4.00
2023-04-04T09:31:17.320Z,3.90
2023-04-04T09:36:18.954Z,3.40
2023-04-04T09:41:21.419Z,7.40
2023-04-04T09:46:23.417Z,3.50
2023-04-04T09:51:24.940Z,3.70
2023-04-04T09:56:27.855Z,3.70
2023-04-04T10:01:29.789Z,4.40
2023-04-04T10:06:31.792Z,3.60
2023-04-04T10:11:36.185Z,3.90
2023-04-04T10:16:38.690Z,3.50
2023-04-04T10:21:41.394Z,3.50
2023-04-04T10:26:42.980Z,3.10
2023-04-04T10:31:47.623Z,3.70
2023-04-04T10:36:50.750Z,3.10
2023-04-04T10:41:53.314Z,2.70
2023-04-04T10:46:58.623Z,3.50
2023-04-04T10:52:01.458Z,3.30
2023-04-04T10:57:03.969Z,3.80
2023-04-04T11:02:06.937Z,4.70
2023-04-04T11:07:18.220Z,2.90
2023-04-04T11:12:42.566Z,2.20
2023-04-04T11:17:50.288Z,3.10
2023-04-04T11:23:06.046Z,3.00
2023-04-04T11:28:25.149Z,3.90
2023-04-04T11:33:27.887Z,3.40
2023-04-04T11:38:29.837Z,2.60
2023-04-04T11:43:33.696Z,1.90
2023-04-04T11:48:36.431Z,2.70
2023-04-04T11:53:38.430Z,2.40
2023-04-04T11:58:40.340Z,2.70
2023-04-04T12:03:42.079Z,2.10
2023-04-04T12:08:44.242Z,2.90
2023-04-04T12:13:45.865Z,2.20
2023-04-04T12:18:47.439Z,1.80
2023-04-04T12:23:49.418Z,2.30
2023-04-04T12:28:53.371Z,2.10
2023-04-04T12:39:08.350Z,2.00
2023-04-04T12:44:09.834Z,3.20
2023-04-04T12:49:11.879Z,3.20
2023-04-04T12:54:26.979Z,2.40
2023-04-04T12:59:34.155Z,1.60
2023-04-04T13:04:36.070Z,2.50
2023-04-04T13:09:52.666Z,2.40
2023-04-04T13:14:59.517Z,2.40
2023-04-04T13:20:01.404Z,2.20
2023-04-04T13:25:04.133Z,2.50
2023-04-04T13:30:09.194Z,2.00
2023-04-04T13:35:13.459Z,2.00
2023-04-04T13:40:15.453Z,2.30
2023-04-04T13:45:16.989Z,1.90
2023-04-04T13:50:18.517Z,2.70
2023-04-04T13:55:21.801Z,2.90
2023-04-04T14:00:26.721Z,2.60
2023-04-04T14:05:28.317Z,2.90
2023-04-04T14:10:29.850Z,3.20
2023-04-04T14:15:31.446Z,3.20
2023-04-04T14:20:33.997Z,2.70
2023-04-04T14:25:36.592Z,2.70
2023-04-04T14:30:38.776Z,2.70
2023-04-04T14:35:40.637Z,3.40
2023-04-04T14:40:42.973Z,3.00
2023-04-04T14:45:44.435Z,2.70
2023-04-04T14:50:46.877Z,4.40
2023-04-04T14:55:48.385Z,2.80
2023-04-04T15:00:50.438Z,2.50
2023-04-04T15:05:52.170Z,4.10
2023-04-04T15:10:54.957Z,3.70
2023-04-04T15:15:56.744Z,2.60
2023-04-04T15:20:58.822Z,4.10
2023-04-04T15:26:00.553Z,1.80
2023-04-04T15:31:03.110Z,2.40
2023-04-04T15:36:05.462Z,2.60
2023-04-04T15:41:10.309Z,2.70
2023-04-04T15:46:11.828Z,1.90
2023-04-04T15:51:13.539Z,2.30
2023-04-04T15:56:17.465Z,2.80
2023-04-04T16:01:19.193Z,2.40
2023-04-04T16:06:21.232Z,3.20
2023-04-04T16:11:22.899Z,2.50
2023-04-04T16:16:24.434Z,2.50
2023-04-04T16:21:26.676Z,1.90
2023-04-04T16:26:28.301Z,2.70
2023-04-04T16:31:31.251Z,2.40
2023-04-04T16:36:32.861Z,3.20
2023-04-04T16:41:34.779Z,4.00
2023-04-04T16:46:36.652Z,2.70
2023-04-04T16:51:38.393Z,2.50
2023-04-04T16:56:39.968Z,2.90
2023-04-04T17:01:41.490Z,2.70
2023-04-04T17:06:43.145Z,4.90
2023-04-04T17:11:47.059Z,3.20
2023-04-04T17:16:48.831Z,3.60
2023-04-04T17:21:50.644Z,3.20
2023-04-04T17:26:52.782Z,3.10
2023-04-04T17:31:56.622Z,3.10
2023-04-04T17:36:58.324Z,2.80
2023-04-04T17:41:59.974Z,2.70
2023-04-04T17:47:01.481Z,2.60
2023-04-04T17:52:04.349Z,3.10
2023-04-04T17:57:07.240Z,3.00
2023-04-04T18:02:08.803Z,3.20
2023-04-04T18:07:11.170Z,3.10
2023-04-04T18:12:12.916Z,2.70
2023-04-04T18:17:14.434Z,2.90
2023-04-04T18:22:15.925Z,2.50
2023-04-04T18:27:17.489Z,3.50
2023-04-04T18:32:21.544Z,3.00
2023-04-04T18:37:23.185Z,3.20
2023-04-04T18:42:26.088Z,3.20
2023-04-04T18:47:27.820Z,3.50
2023-04-04T18:52:29.351Z,3.60
2023-04-04T18:57:31.520Z,4.60
2023-04-04T19:02:34.269Z,4.30
2023-04-04T19:07:36.295Z,4.00
2023-04-04T19:12:37.844Z,5.30
2023-04-04T19:17:40.093Z,4.50
2023-04-04T19:22:41.931Z,5.10
2023-04-04T19:27:43.462Z,5.20
2023-04-04T19:32:44.982Z,4.40
2023-04-04T19:37:46.804Z,3.70
2023-04-04T19:42:48.372Z,3.80
2023-04-04T19:47:50.370Z,2.70
2023-04-04T19:52:52.280Z,4.00
2023-04-04T19:57:53.746Z,3.30
2023-04-04T20:02:58.097Z,3.30
2023-04-04T20:08:02.776Z,3.60
2023-04-04T20:13:06.774Z,2.80
2023-04-04T20:18:08.450Z,2.80
2023-04-04T20:23:10.011Z,3.90
2023-04-04T20:28:28.599Z,3.50
2023-04-04T20:33:32.937Z,4.60
2023-04-04T20:38:36.882Z,3.60
2023-04-04T20:43:38.558Z,2.80
2023-04-04T20:48:40.840Z,2.50
2023-04-04T20:53:42.409Z,3.60
2023-04-04T20:58:43.941Z,3.70
2023-04-04T21:03:47.156Z,2.90
2023-04-04T21:08:51.043Z,3.70
2023-04-04T21:13:52.946Z,3.80
2023-04-04T21:18:58.843Z,3.90
2023-04-04T21:24:01.341Z,4.00
2023-04-04T21:29:08.053Z,4.50
2023-04-04T21:34:11.483Z,5.20
2023-04-04T21:39:29.535Z,11.10
2023-04-04T21:44:31.872Z,20.60
2023-04-04T21:49:33.446Z,15.90
2023-04-04T21:54:34.923Z,16.60
2023-04-04T21:59:36.500Z,17.80
2023-04-04T22:04:38.195Z,14.90
2023-04-04T22:09:43.014Z,13.00
2023-04-04T22:14:45.826Z,11.60
2023-04-04T22:19:58.858Z,9.50
2023-04-04T22:25:07.211Z,9.40
2023-04-04T22:30:09.399Z,14.40
2023-04-04T22:35:12.453Z,19.80
2023-04-04T22:40:14.347Z,21.40
2023-04-04T22:45:16.930Z,16.00
2023-04-04T22:50:23.370Z,14.00
2023-04-04T22:55:26.603Z,11.40
2023-04-04T23:00:28.348Z,11.30
2023-04-04T23:05:29.871Z,12.40
2023-04-04T23:10:31.568Z,12.30
2023-04-04T23:15:35.749Z,10.90
2023-04-04T23:20:37.504Z,13.90
2023-04-04T23:25:39.085Z,12.50
2023-04-04T23:30:40.882Z,11.70
2023-04-04T23:35:43.022Z,11.80
2023-04-04T23:40:44.618Z,8.60
2023-04-04T23:45:46.189Z,8.30
2023-04-04T23:50:50.036Z,10.40
2023-04-04T23:55:51.905Z,11.00
